Time;durP1;ratioP1;P1;durP2;ratioP2;P2;SDS_P1;SDS_P2;PMS_P1;PMS_P2;Temp;Humidity;BMP_temperature;BMP_pressure;BME280_temperature;BME280_humidity;BME280_pressure;Samples;Min_cycle;Max_cycle;Signal;HPM_P1;HPM_P2
2022/04/25 00:00:18;;;;;;;25.00;20.20;;;11.60;99.90;;;;;;5136176;27;20200;-68
2022/04/25 00:02:46;;;;;;;24.55;18.80;;;11.50;99.90;;;;;;5135749;27;20311;-68
2022/04/25 00:05:13;;;;;;;22.45;19.27;;;11.50;99.90;;;;;;5135638;27;20197;-68
2022/04/25 00:07:39;;;;;;;21.05;17.95;;;11.40;99.90;;;;;;5135996;27;20209;-68
2022/04/25 00:10:07;;;;;;;23.60;19.58;;;11.40;99.90;;;;;;5135963;27;20201;-68
2022/04/25 00:12:34;;;;;;;23.58;20.30;;;11.40;99.90;;;;;;5135856;27;20283;-68
2022/04/25 00:15:01;;;;;;;23.48;19.63;;;11.40;99.90;;;;;;5135547;27;20216;-68
2022/04/25 00:17:28;;;;;;;23.90;18.70;;;11.40;99.90;;;;;;5135679;27;20207;-68
2022/04/25 00:19:56;;;;;;;25.63;20.83;;;11.40;99.90;;;;;;5135786;27;20393;-68
2022/04/25 00:22:23;;;;;;;26.42;21.00;;;11.40;99.90;;;;;;5135651;27;20215;-68
2022/04/25 00:24:50;;;;;;;25.30;19.55;;;11.50;99.90;;;;;;5134988;27;20381;-68
2022/04/25 00:27:17;;;;;;;26.38;21.50;;;11.50;99.90;;;;;;5135287;27;20659;-68
2022/04/25 00:29:44;;;;;;;27.83;20.98;;;11.40;99.90;;;;;;5135306;27;20218;-68
2022/04/25 00:32:11;;;;;;;26.52;20.65;;;11.40;99.90;;;;;;5135484;27;20287;-68
2022/04/25 00:34:38;;;;;;;26.77;20.95;;;11.40;99.90;;;;;;5134927;27;20228;-68
2022/04/25 00:37:06;;;;;;;23.17;19.17;;;11.40;99.90;;;;;;5135689;27;20200;-68
2022/04/25 00:39:33;;;;;;;22.20;19.00;;;11.40;99.90;;;;;;5135349;27;20200;-68
2022/04/25 00:42:00;;;;;;;24.73;20.63;;;11.40;99.90;;;;;;5135338;27;20212;-68
2022/04/25 00:44:27;;;;;;;24.67;21.20;;;11.30;99.90;;;;;;5135018;27;20223;-68
2022/04/25 00:46:55;;;;;;;25.10;21.05;;;11.30;99.90;;;;;;5135252;27;20204;-68
2022/04/25 00:49:23;;;;;;;27.23;21.60;;;11.30;99.90;;;;;;5134958;27;20753;-68
2022/04/25 00:51:51;;;;;;;26.92;21.00;;;11.30;99.90;;;;;;5135168;27;20207;-68
2022/04/25 00:54:20;;;;;;;28.30;22.83;;;11.30;99.90;;;;;;5134538;27;20315;-68
2022/04/25 00:56:49;;;;;;;25.17;20.90;;;11.30;99.90;;;;;;5135106;27;20207;-68
2022/04/25 00:59:18;;;;;;;28.40;23.05;;;11.30;99.90;;;;;;5134801;27;20636;-68
2022/04/25 01:01:46;;;;;;;28.85;23.30;;;11.30;99.90;;;;;;5134809;27;20658;-68
2022/04/25 01:04:13;;;;;;;28.23;23.15;;;11.30;99.90;;;;;;5134721;27;20224;-68
2022/04/25 01:06:40;;;;;;;31.50;25.45;;;11.30;99.90;;;;;;5134952;27;20235;-68
2022/04/25 01:09:07;;;;;;;29.65;23.58;;;11.30;99.90;;;;;;5134917;27;20223;-68
2022/04/25 01:11:35;;;;;;;31.15;24.13;;;11.20;99.90;;;;;;5135022;27;20214;-68
2022/04/25 01:14:15;;;;;;;30.50;24.63;;;11.20;99.90;;;;;;5134528;27;20224;-68
2022/04/25 01:16:42;;;;;;;31.20;25.88;;;11.10;99.90;;;;;;5134620;27;20662;-68
2022/04/25 01:19:13;;;;;;;30.40;23.55;;;11.10;99.90;;;;;;5134604;27;20203;-68
2022/04/25 01:21:42;;;;;;;29.65;24.08;;;11.00;99.90;;;;;;5135004;27;20207;-68
2022/04/25 01:29:41;;;;;;;33.90;27.00;;;10.90;99.90;;;;;;5134584;27;20215;-68
2022/04/25 01:32:09;;;;;;;29.90;23.85;;;10.90;99.90;;;;;;5134608;27;20197;-68
2022/04/25 01:34:38;;;;;;;31.17;25.65;;;10.90;99.90;;;;;;5133958;28;20223;-68
2022/04/25 01:37:08;;;;;;;31.85;25.23;;;10.90;99.90;;;;;;5137760;27;20204;-68
2022/04/25 01:39:38;;;;;;;33.85;26.27;;;11.00;99.90;;;;;;5141170;27;20714;-68
2022/04/25 01:42:07;;;;;;;30.50;26.50;;;10.90;99.90;;;;;;5141425;27;20340;-68
2022/04/25 01:44:34;;;;;;;32.53;26.90;;;10.90;99.90;;;;;;5141127;27;20216;-68
2022/04/25 01:47:01;;;;;;;34.83;27.50;;;10.90;99.90;;;;;;5141166;27;20641;-68
2022/04/25 01:49:28;;;;;;;34.05;25.85;;;10.90;99.90;;;;;;5141304;27;20223;-68
2022/04/25 01:51:55;;;;;;;30.58;25.25;;;10.90;99.90;;;;;;5141279;27;20203;-68
2022/04/25 01:54:25;;;;;;;32.42;26.13;;;10.90;99.90;;;;;;5140832;27;20216;-68
2022/04/25 01:56:53;;;;;;;31.85;26.33;;;11.00;99.90;;;;;;5141251;27;20563;-68
2022/04/25 01:59:20;;;;;;;31.88;25.50;;;11.00;99.90;;;;;;5141127;27;20281;-68
2022/04/25 02:01:47;;;;;;;33.13;26.00;;;10.90;99.90;;;;;;5141109;27;20207;-68
2022/04/25 02:04:14;;;;;;;31.23;25.35;;;10.90;99.90;;;;;;5140938;27;20216;-68
2022/04/25 02:06:41;;;;;;;31.65;26.27;;;10.90;99.90;;;;;;5141391;27;20229;-68
2022/04/25 02:09:08;;;;;;;34.83;27.30;;;10.90;99.90;;;;;;5141109;27;20295;-68
2022/04/25 02:11:35;;;;;;;31.70;25.58;;;11.00;99.90;;;;;;5141016;27;20253;-68
2022/04/25 02:14:04;;;;;;;33.55;27.02;;;11.00;99.90;;;;;;5140488;27;20217;-68
2022/04/25 02:16:30;;;;;;;31.48;24.83;;;11.00;99.90;;;;;;5141024;27;20205;-68
2022/04/25 02:18:57;;;;;;;31.13;25.52;;;11.00;99.90;;;;;;5141098;27;20615;-68
2022/04/25 02:21:24;;;;;;;32.45;27.10;;;11.00;99.90;;;;;;5140960;27;20217;-68
2022/04/25 02:23:51;;;;;;;31.15;26.02;;;11.00;99.90;;;;;;5140648;27;20647;-68
2022/04/25 02:26:18;;;;;;;31.25;25.85;;;11.00;99.90;;;;;;5140969;27;20231;-68
2022/04/25 02:28:45;;;;;;;33.20;26.70;;;11.00;99.90;;;;;;5140752;27;20219;-68
2022/04/25 02:31:14;;;;;;;32.95;25.30;;;11.00;99.90;;;;;;5140924;27;20291;-68
2022/04/25 02:33:41;;;;;;;33.55;26.20;;;11.00;99.90;;;;;;5140966;27;20220;-68
2022/04/25 02:36:09;;;;;;;33.65;26.08;;;11.00;99.90;;;;;;5140853;27;20236;-68
2022/04/25 02:38:37;;;;;;;31.85;26.27;;;11.00;99.90;;;;;;5140661;27;20203;-68
2022/04/25 02:41:08;;;;;;;36.63;27.20;;;10.90;99.90;;;;;;5140749;27;20745;-67
2022/04/25 02:43:37;;;;;;;33.80;26.73;;;10.90;99.90;;;;;;5140673;27;20223;-68
2022/04/25 02:46:05;;;;;;;36.17;27.30;;;10.90;99.90;;;;;;5140650;27;20196;-68
2022/04/25 02:48:33;;;;;;;33.10;26.80;;;10.80;99.90;;;;;;5138515;27;20261;-68
2022/04/25 02:51:00;;;;;;;34.22;26.23;;;10.80;99.90;;;;;;5137519;27;20210;-68
2022/04/25 02:53:27;;;;;;;32.42;24.92;;;10.80;99.90;;;;;;5137049;27;20225;-68
2022/04/25 02:55:54;;;;;;;30.30;24.75;;;10.80;99.90;;;;;;5137272;27;20219;-68
2022/04/25 02:58:23;;;;;;;31.80;23.13;;;10.80;99.90;;;;;;5137394;27;20283;-68
2022/04/25 03:00:51;;;;;;;28.33;23.70;;;10.80;99.90;;;;;;5137355;27;20201;-68
2022/04/25 03:03:19;;;;;;;32.13;25.90;;;10.80;99.90;;;;;;5136914;27;20593;-68
2022/04/25 03:05:48;;;;;;;30.35;23.58;;;10.80;99.90;;;;;;5137142;27;20558;-68
2022/04/25 03:08:17;;;;;;;31.75;24.85;;;10.80;99.90;;;;;;5137138;27;20203;-68
2022/04/25 03:10:45;;;;;;;32.08;24.77;;;10.70;99.90;;;;;;5136877;27;20666;-68
2022/04/25 03:13:12;;;;;;;34.33;26.17;;;10.70;99.90;;;;;;5136629;27;20221;-68
2022/04/25 03:15:39;;;;;;;36.33;27.05;;;10.70;99.90;;;;;;5136991;27;20227;-68
2022/04/25 03:18:07;;;;;;;32.10;24.70;;;10.60;99.90;;;;;;5137033;27;20573;-68
2022/04/25 03:20:34;;;;;;;37.00;27.30;;;10.60;99.90;;;;;;5137113;27;20201;-68
2022/04/25 03:23:02;;;;;;;34.17;26.02;;;10.60;99.90;;;;;;5137121;27;20220;-68
2022/04/25 03:25:29;;;;;;;32.20;25.67;;;10.60;99.90;;;;;;5136891;27;20207;-68
2022/04/25 03:27:56;;;;;;;33.17;25.73;;;10.60;99.90;;;;;;5136911;27;20205;-68
2022/04/25 03:30:23;;;;;;;32.53;26.17;;;10.70;99.90;;;;;;5136682;27;20224;-68
2022/04/25 03:32:50;;;;;;;31.80;25.67;;;10.60;99.90;;;;;;5136590;27;20226;-69
2022/04/25 03:35:18;;;;;;;35.88;25.50;;;10.60;99.90;;;;;;5136459;27;20273;-68
2022/04/25 03:37:47;;;;;;;34.83;27.00;;;10.50;99.90;;;;;;5136678;27;20207;-68
2022/04/25 03:40:15;;;;;;;33.65;26.48;;;10.50;99.90;;;;;;5137149;27;20299;-68
2022/04/25 03:42:44;;;;;;;36.13;27.67;;;10.50;99.90;;;;;;5136698;27;20255;-68
2022/04/25 03:45:12;;;;;;;34.03;25.58;;;10.50;99.90;;;;;;5136409;27;20655;-67
2022/04/25 03:47:39;;;;;;;34.95;26.55;;;10.40;99.90;;;;;;5136467;27;20211;-68
2022/04/25 03:50:08;;;;;;;34.10;26.90;;;10.40;99.90;;;;;;5136307;27;20236;-67
2022/04/25 03:52:35;;;;;;;31.90;25.08;;;10.50;99.90;;;;;;5136272;27;20547;-68
2022/04/25 03:57:50;;;;;;;30.55;24.45;;;10.50;99.90;;;;;;5136635;27;20704;-68
2022/04/25 04:00:18;;;;;;;33.88;26.20;;;10.50;99.90;;;;;;5134923;27;20196;-68
2022/04/25 04:02:44;;;;;;;31.80;24.90;;;10.60;99.90;;;;;;5135978;27;20231;-68
2022/04/25 04:05:11;;;;;;;34.70;27.35;;;10.60;99.90;;;;;;5135957;27;20621;-68
2022/04/25 04:07:38;;;;;;;31.58;26.13;;;10.70;99.90;;;;;;5136006;27;20566;-68
2022/04/25 04:10:06;;;;;;;33.80;25.20;;;10.70;99.90;;;;;;5136189;27;20201;-68
2022/04/25 04:12:34;;;;;;;35.33;25.67;;;10.70;99.90;;;;;;5135607;27;20605;-68
2022/04/25 04:15:03;;;;;;;32.03;25.00;;;10.70;99.90;;;;;;5135371;27;20686;-68
2022/04/25 04:17:30;;;;;;;39.25;28.67;;;10.80;99.90;;;;;;5135878;27;20205;-68
2022/04/25 04:19:57;;;;;;;34.67;26.90;;;10.80;99.90;;;;;;5135770;27;20223;-68
2022/04/25 04:22:25;;;;;;;32.95;26.60;;;10.80;99.90;;;;;;5135670;27;20291;-68
2022/04/25 04:24:53;;;;;;;31.60;26.10;;;10.90;99.90;;;;;;5135470;27;20201;-68
2022/04/25 04:27:19;;;;;;;33.05;26.05;;;10.90;99.90;;;;;;5135561;27;20290;-68
2022/04/25 04:29:46;;;;;;;33.25;26.55;;;10.90;99.90;;;;;;5135417;27;20212;-68
2022/04/25 04:32:15;;;;;;;34.72;26.95;;;10.90;99.90;;;;;;5135436;27;20200;-68
2022/04/25 04:34:42;;;;;;;33.90;26.65;;;10.90;99.90;;;;;;5135633;27;20224;-68
2022/04/25 04:37:08;;;;;;;32.08;26.55;;;10.90;99.90;;;;;;5135297;27;20726;-68
2022/04/25 04:39:35;;;;;;;32.78;27.00;;;10.90;99.90;;;;;;5135373;27;20201;-68
2022/04/25 04:42:02;;;;;;;33.80;26.75;;;10.90;99.90;;;;;;5135330;27;20207;-68
2022/04/25 04:44:29;;;;;;;31.98;25.58;;;11.00;99.90;;;;;;5135106;27;20224;-68
2022/04/25 04:46:56;;;;;;;33.97;26.85;;;10.90;99.90;;;;;;5135282;27;20197;-68
2022/04/25 04:49:24;;;;;;;34.92;26.90;;;11.00;99.90;;;;;;5135247;27;20207;-68
2022/04/25 04:51:51;;;;;;;35.90;26.42;;;11.00;99.90;;;;;;5135202;27;20309;-68
2022/04/25 04:54:18;;;;;;;34.42;25.45;;;11.10;99.90;;;;;;5134918;27;20225;-68
2022/04/25 04:56:46;;;;;;;34.10;26.77;;;11.10;99.90;;;;;;5134951;27;20315;-68
2022/04/25 04:59:13;;;;;;;33.20;25.90;;;11.10;99.90;;;;;;5135085;27;20204;-68
2022/04/25 05:01:39;;;;;;;35.88;28.38;;;11.10;99.90;;;;;;5134855;27;20662;-68
2022/04/25 05:04:06;;;;;;;29.67;25.55;;;11.10;99.90;;;;;;5134811;27;20227;-68
2022/04/25 05:06:34;;;;;;;33.70;26.38;;;11.10;99.90;;;;;;5134953;27;20283;-68
2022/04/25 05:09:01;;;;;;;35.53;26.60;;;11.10;99.90;;;;;;5135122;27;20204;-68
2022/04/25 05:11:29;;;;;;;33.72;26.70;;;11.10;99.90;;;;;;5134488;27;20204;-68
2022/04/25 05:13:56;;;;;;;32.63;26.15;;;11.20;99.90;;;;;;5134823;27;20221;-68
2022/04/25 05:16:23;;;;;;;30.45;24.73;;;11.20;99.90;;;;;;5134769;27;20231;-68
2022/04/25 05:18:50;;;;;;;35.13;26.27;;;11.20;99.90;;;;;;5135028;27;20207;-68
2022/04/25 05:21:16;;;;;;;33.75;27.35;;;11.30;99.90;;;;;;5134652;27;20726;-68
2022/04/25 05:23:45;;;;;;;33.20;26.73;;;11.40;99.90;;;;;;5134271;27;20221;-68
2022/04/25 05:26:12;;;;;;;32.92;25.80;;;11.30;99.90;;;;;;5134700;27;20550;-68
2022/04/25 05:28:39;;;;;;;31.88;26.50;;;11.40;99.90;;;;;;5134290;27;20215;-68
2022/04/25 05:31:06;;;;;;;37.33;25.85;;;11.30;99.90;;;;;;5134604;27;20262;-68
2022/04/25 05:33:33;;;;;;;31.23;25.48;;;11.30;99.90;;;;;;5134235;27;20221;-68
2022/04/25 05:35:59;;;;;;;44.75;33.20;;;11.30;99.90;;;;;;5134416;28;20224;-68
2022/04/25 05:38:26;;;;;;;33.17;27.10;;;11.30;99.90;;;;;;5134509;28;20299;-68
2022/04/25 05:40:56;;;;;;;35.28;26.67;;;11.40;99.90;;;;;;5134314;28;20662;-68
2022/04/25 05:43:25;;;;;;;32.17;25.52;;;11.40;99.90;;;;;;5134285;28;20239;-68
2022/04/25 05:45:51;;;;;;;30.38;25.42;;;11.40;99.90;;;;;;5134501;28;20192;-68
2022/04/25 05:53:47;;;;;;;31.85;25.70;;;11.70;99.90;;;;;;5134312;28;20223;-68
2022/04/25 05:56:15;;;;;;;27.13;23.02;;;11.80;99.90;;;;;;5134324;28;20664;-68
2022/04/25 05:58:42;;;;;;;31.38;25.02;;;11.90;99.90;;;;;;5134329;28;20240;-68
2022/04/25 06:01:09;;;;;;;31.77;24.92;;;11.90;99.90;;;;;;5134130;28;20643;-68
2022/04/25 06:03:35;;;;;;;30.23;25.55;;;11.90;99.90;;;;;;5134118;28;20229;-68
2022/04/25 06:06:02;;;;;;;33.70;24.98;;;11.90;99.90;;;;;;5134302;28;20196;-68
2022/04/25 06:08:29;;;;;;;27.98;23.42;;;11.80;99.90;;;;;;5134274;28;20197;-68
2022/04/25 06:10:56;;;;;;;27.90;22.92;;;11.90;99.90;;;;;;5134233;28;20255;-68
2022/04/25 06:13:25;;;;;;;29.65;24.77;;;12.00;99.90;;;;;;5133799;27;20757;-68
2022/04/25 06:15:53;;;;;;;28.55;23.17;;;12.00;99.90;;;;;;5134217;28;20307;-68
2022/04/25 06:18:20;;;;;;;28.90;22.98;;;12.10;99.90;;;;;;5133925;28;20745;-68
2022/04/25 06:20:48;;;;;;;28.50;23.13;;;12.20;99.90;;;;;;5134132;28;20201;-68
2022/04/25 06:23:14;;;;;;;29.65;22.60;;;12.10;99.90;;;;;;5134177;27;20231;-68
2022/04/25 06:25:44;;;;;;;29.20;23.65;;;12.10;99.90;;;;;;5138169;27;20561;-68
2022/04/25 06:28:10;;;;;;;29.83;23.42;;;11.90;99.90;;;;;;5137841;27;20647;-70
2022/04/25 06:30:41;;;;;;;28.95;23.10;;;11.90;99.90;;;;;;5137956;27;20208;-68
2022/04/25 06:33:08;;;;;;;29.63;24.20;;;11.90;99.90;;;;;;5137950;27;20312;-68
2022/04/25 06:35:38;;;;;;;26.48;22.77;;;11.90;99.90;;;;;;5137823;27;20230;-68
2022/04/25 06:38:05;;;;;;;29.55;23.08;;;12.00;99.90;;;;;;5137781;27;20291;-68
2022/04/25 06:40:32;;;;;;;28.80;23.40;;;12.20;99.90;;;;;;5137770;27;20205;-68
2022/04/25 06:42:59;;;;;;;28.92;23.13;;;12.30;99.90;;;;;;5137360;27;20224;-69
2022/04/25 06:45:26;;;;;;;25.80;22.85;;;12.50;99.90;;;;;;5137697;27;20545;-68
2022/04/25 06:47:54;;;;;;;24.33;21.50;;;12.50;99.90;;;;;;5137822;27;20200;-68
2022/04/25 06:50:21;;;;;;;28.67;23.42;;;12.50;99.90;;;;;;5137591;27;20201;-68
2022/04/25 06:52:48;;;;;;;28.27;23.05;;;12.60;99.90;;;;;;5137338;27;20225;-68
2022/04/25 06:55:15;;;;;;;27.20;22.45;;;12.60;99.90;;;;;;5137294;27;20582;-68
2022/04/25 06:57:42;;;;;;;27.38;22.30;;;12.80;99.90;;;;;;5137434;27;20225;-68
2022/04/25 07:00:11;;;;;;;29.00;23.52;;;12.90;99.90;;;;;;5137327;27;20287;-68
2022/04/25 07:02:38;;;;;;;25.70;22.13;;;12.90;99.90;;;;;;5137068;27;20673;-68
2022/04/25 07:05:08;;;;;;;30.02;23.67;;;13.10;99.90;;;;;;5137029;27;20207;-68
2022/04/25 07:07:35;;;;;;;28.95;23.60;;;13.20;99.90;;;;;;5137146;27;20292;-68
2022/04/25 07:10:01;;;;;;;30.50;23.45;;;13.30;99.90;;;;;;5137152;27;20224;-68
2022/04/25 07:12:28;;;;;;;30.38;25.23;;;13.20;99.90;;;;;;5137086;27;20229;-68
2022/04/25 07:14:55;;;;;;;25.15;22.10;;;13.20;99.90;;;;;;5137112;27;20249;-68
2022/04/25 07:17:22;;;;;;;30.65;24.48;;;13.10;99.90;;;;;;5136839;27;20224;-68
2022/04/25 07:19:49;;;;;;;27.20;23.20;;;13.10;99.90;;;;;;5137060;27;20295;-68
2022/04/25 07:30:30;;;;;;;25.45;21.35;;;13.00;99.90;;;;;;5136823;27;20617;-68
2022/04/25 07:32:57;;;;;;;23.55;19.67;;;12.90;99.90;;;;;;5136571;27;20293;-68
2022/04/25 07:35:24;;;;;;;25.88;20.88;;;13.00;99.90;;;;;;5136394;27;20205;-68
2022/04/25 07:37:52;;;;;;;23.10;19.20;;;13.00;99.90;;;;;;5136645;27;20229;-68
2022/04/25 07:40:19;;;;;;;20.88;18.25;;;13.10;99.90;;;;;;5136458;27;20207;-68
2022/04/25 07:42:46;;;;;;;19.70;17.63;;;13.30;99.90;;;;;;5136340;27;20307;-68
2022/04/25 07:45:13;;;;;;;21.83;18.60;;;13.30;99.90;;;;;;5136328;27;20207;-69
2022/04/25 07:47:43;;;;;;;20.75;18.65;;;13.30;99.90;;;;;;5136542;27;20304;-68
2022/04/25 07:50:10;;;;;;;18.85;16.85;;;13.60;99.90;;;;;;5136194;27;20761;-68
2022/04/25 07:52:37;;;;;;;20.55;18.45;;;13.80;99.90;;;;;;5136159;27;20201;-68
2022/04/25 07:55:08;;;;;;;20.05;17.60;;;13.80;99.90;;;;;;5136057;27;20662;-68
2022/04/25 07:57:35;;;;;;;20.25;18.17;;;14.00;99.90;;;;;;5136205;27;20250;-68
2022/04/25 08:00:02;;;;;;;21.58;19.38;;;14.30;99.90;;;;;;5136196;27;20198;-68
2022/04/25 08:02:29;;;;;;;18.48;16.67;;;14.50;99.90;;;;;;5135860;27;20205;-68
2022/04/25 08:04:56;;;;;;;19.55;17.55;;;14.70;99.90;;;;;;5136138;27;20204;-69
2022/04/25 08:07:23;;;;;;;18.33;16.52;;;14.90;99.90;;;;;;5136138;27;20202;-68
2022/04/25 08:09:50;;;;;;;18.90;16.85;;;15.10;99.90;;;;;;5136076;27;20204;-69
2022/04/25 08:18:04;;;;;;;19.75;17.73;;;15.30;99.90;;;;;;5136111;27;20692;-68
2022/04/25 08:20:34;;;;;;;19.67;17.58;;;14.90;99.90;;;;;;5135827;27;20668;-68
2022/04/25 08:23:01;;;;;;;19.08;17.17;;;14.90;99.90;;;;;;5135326;27;20261;-69
2022/04/25 08:25:30;;;;;;;19.55;17.45;;;15.10;99.90;;;;;;5135767;27;20203;-68
2022/04/25 08:27:58;;;;;;;19.80;17.70;;;15.30;99.90;;;;;;5135505;27;20210;-68
2022/04/25 08:30:25;;;;;;;20.95;18.77;;;15.30;99.90;;;;;;5135409;27;20219;-68
2022/04/25 08:32:54;;;;;;;19.63;17.48;;;15.30;99.90;;;;;;5135591;27;20311;-68
2022/04/25 08:35:21;;;;;;;19.83;17.73;;;15.30;99.90;;;;;;5135319;27;20302;-68
2022/04/25 08:37:48;;;;;;;19.60;17.48;;;15.30;99.90;;;;;;5135420;27;20223;-68
2022/04/25 08:40:15;;;;;;;20.15;18.15;;;15.10;99.90;;;;;;5135444;27;20206;-68
2022/04/25 08:42:43;;;;;;;20.92;18.83;;;15.00;99.90;;;;;;5135287;27;20226;-68
2022/04/25 08:45:12;;;;;;;20.08;17.83;;;14.80;99.90;;;;;;5135243;27;20209;-68
2022/04/25 08:47:50;;;;;;;20.38;18.27;;;14.70;99.90;;;;;;5134649;27;20562;-68
2022/04/25 08:50:18;;;;;;;21.52;19.20;;;14.60;99.90;;;;;;5135048;27;20656;-68
2022/04/25 08:52:46;;;;;;;20.50;18.40;;;14.40;99.90;;;;;;5135142;27;20245;-68
2022/04/25 08:55:13;;;;;;;20.75;18.65;;;14.50;99.90;;;;;;5135302;27;20209;-68
2022/04/25 08:57:41;;;;;;;20.20;18.10;;;14.50;99.90;;;;;;5135082;27;20228;-68
2022/04/25 09:00:09;;;;;;;21.30;19.00;;;14.40;99.90;;;;;;5135136;27;20572;-68
2022/04/25 09:02:38;;;;;;;21.20;19.00;;;14.50;99.90;;;;;;5134889;27;20211;-68
2022/04/25 09:05:06;;;;;;;21.75;19.55;;;14.40;99.90;;;;;;5134867;27;20209;-68
2022/04/25 09:07:32;;;;;;;21.85;19.55;;;14.30;99.90;;;;;;5134798;27;20673;-68
2022/04/25 09:09:59;;;;;;;19.25;17.30;;;14.20;99.90;;;;;;5135120;27;20198;-68
2022/04/25 09:12:27;;;;;;;21.23;18.95;;;14.20;99.90;;;;;;5134815;27;20297;-68
2022/04/25 09:14:56;;;;;;;23.05;20.63;;;14.30;99.90;;;;;;5134400;27;20667;-68
2022/04/25 09:17:24;;;;;;;21.10;18.85;;;14.30;99.90;;;;;;5134785;27;20274;-68
2022/04/25 09:19:52;;;;;;;22.33;20.00;;;14.40;99.90;;;;;;5134841;27;20207;-68
2022/04/25 09:22:32;;;;;;;21.92;19.70;;;14.50;99.90;;;;;;5134735;27;20205;-68
2022/04/25 09:25:05;;;;;;;21.52;19.23;;;14.60;99.90;;;;;;5134528;27;20244;-68
2022/04/25 09:27:33;;;;;;;22.25;19.95;;;14.70;99.90;;;;;;5134939;27;20205;-68
2022/04/25 09:30:14;;;;;;;21.48;19.35;;;14.70;99.90;;;;;;5134402;27;20213;-68
2022/04/25 09:32:42;;;;;;;21.42;19.13;;;14.70;99.90;;;;;;5134568;27;20688;-68
2022/04/25 09:35:32;;;;;;;22.90;20.08;;;14.80;99.90;;;;;;5134461;27;20198;-68
2022/04/25 09:38:00;;;;;;;22.63;20.27;;;14.80;99.90;;;;;;5134499;27;20317;-68
2022/04/25 09:40:29;;;;;;;22.75;20.45;;;14.80;99.90;;;;;;5134734;28;20214;-68
2022/04/25 09:43:08;;;;;;;22.92;19.42;;;14.70;99.90;;;;;;5134399;27;20226;-69
2022/04/25 09:45:40;;;;;;;21.75;19.45;;;14.70;99.90;;;;;;5134579;28;20538;-68
2022/04/25 09:48:11;;;;;;;22.35;19.95;;;14.60;99.90;;;;;;5134482;28;20203;-68
2022/04/25 09:50:40;;;;;;;20.73;18.73;;;14.80;99.90;;;;;;5134904;28;20199;-68
2022/04/25 09:53:08;;;;;;;23.55;19.75;;;14.90;99.90;;;;;;5134194;28;20222;-69
2022/04/25 09:55:37;;;;;;;20.75;18.50;;;15.20;99.90;;;;;;5134255;28;20255;-68
2022/04/25 09:58:23;;;;;;;20.10;18.02;;;15.90;99.90;;;;;;5136036;27;20720;-68
2022/04/25 10:00:53;;;;;;;18.60;16.60;;;17.80;99.90;;;;;;5138554;27;20255;-69
2022/04/25 10:03:33;;;;;;;17.30;15.80;;;19.50;98.00;;;;;;5138371;27;20473;-69
2022/04/25 10:06:03;;;;;;;17.03;15.43;;;21.60;92.40;;;;;;5138751;27;20438;-69
2022/04/25 10:08:34;;;;;;;17.83;16.23;;;22.90;88.30;;;;;;5138323;27;20451;-69
2022/04/25 10:11:03;;;;;;;18.67;16.97;;;23.60;76.10;;;;;;5138398;27;20447;-69
2022/04/25 10:13:32;;;;;;;19.73;17.80;;;23.00;73.50;;;;;;5137987;27;20462;-69
2022/04/25 10:16:00;;;;;;;18.87;17.17;;;22.00;75.80;;;;;;5138260;27;20445;-69
2022/04/25 10:18:28;;;;;;;18.40;16.80;;;21.40;78.90;;;;;;5138168;27;20812;-68
2022/04/25 10:20:55;;;;;;;26.23;23.73;;;21.10;78.30;;;;;;5138320;27;20544;-69
2022/04/25 10:23:24;;;;;;;19.77;17.97;;;20.60;78.40;;;;;;5138280;27;20462;-69
2022/04/25 10:25:54;;;;;;;18.40;16.70;;;20.40;81.50;;;;;;5138201;27;20796;-69
2022/04/25 10:28:25;;;;;;;19.20;16.80;;;20.50;80.70;;;;;;5138270;27;20446;-70
2022/04/25 10:30:58;;;;;;;19.77;18.07;;;20.20;81.90;;;;;;5138110;27;20445;-69
2022/04/25 10:33:25;;;;;;;18.60;16.83;;;19.70;81.60;;;;;;5137767;27;20472;-69
2022/04/25 10:35:53;;;;;;;20.57;18.53;;;19.30;85.70;;;;;;5137902;27;20523;-68
2022/04/25 10:38:50;;;;;;;19.40;17.13;;;19.00;88.30;;;;;;5137722;27;20471;-68
2022/04/25 10:44:48;;;;;;;19.55;17.75;;;18.80;88.80;;;;;;5137387;27;20512;-69
2022/04/25 10:47:17;;;;;;;18.83;17.08;;;18.40;86.20;;;;;;5137763;27;20287;-69
2022/04/25 10:49:46;;;;;;;19.75;17.88;;;18.00;90.90;;;;;;5137484;27;20686;-69
2022/04/25 10:53:01;;;;;;;19.80;17.92;;;17.70;91.50;;;;;;5126653;27;20201;-70
2022/04/25 10:55:47;;;;;;;19.45;17.50;;;17.50;90.90;;;;;;5115659;28;20206;-69
2022/04/25 10:58:21;;;;;;;21.08;18.75;;;17.50;92.20;;;;;;5115551;28;20267;-68
2022/04/25 11:00:50;;;;;;;21.63;19.40;;;17.50;92.70;;;;;;5115884;28;20285;-69
2022/04/25 11:03:19;;;;;;;20.77;18.85;;;17.10;90.70;;;;;;5115724;28;20702;-66
2022/04/25 11:05:48;;;;;;;21.10;19.00;;;16.80;94.80;;;;;;5115674;28;20235;-69
2022/04/25 11:08:29;;;;;;;20.42;18.42;;;16.50;95.10;;;;;;5115640;28;20204;-70
2022/04/25 11:11:09;;;;;;;21.55;19.35;;;16.50;96.00;;;;;;5115082;28;20299;-69
2022/04/25 11:14:01;;;;;;;20.17;18.15;;;16.60;96.50;;;;;;5115037;28;20232;-69
2022/04/25 11:16:29;;;;;;;19.58;17.77;;;16.70;96.30;;;;;;5115068;28;20197;-70
2022/04/25 11:19:15;;;;;;;19.83;17.92;;;16.90;95.90;;;;;;5115378;28;20225;-69
2022/04/25 11:21:48;;;;;;;20.02;18.02;;;16.90;93.20;;;;;;5115568;28;20617;-69
2022/04/25 11:24:35;;;;;;;19.92;17.92;;;16.90;93.60;;;;;;5114700;28;20232;-70
2022/04/25 11:27:04;;;;;;;20.48;18.17;;;17.10;95.10;;;;;;5115374;28;20717;-69
2022/04/25 11:29:31;;;;;;;20.08;18.10;;;17.00;94.60;;;;;;5115091;28;20205;-68
2022/04/25 11:32:25;;;;;;;19.92;17.85;;;17.00;94.00;;;;;;5114929;28;20624;-69
2022/04/25 11:34:53;;;;;;;21.45;19.35;;;17.00;93.90;;;;;;5115003;28;20205;-69
2022/04/25 11:37:22;;;;;;;20.33;18.38;;;16.70;91.80;;;;;;5114792;28;20218;-69
2022/04/25 11:40:00;;;;;;;20.77;18.83;;;16.50;93.90;;;;;;5114613;28;20600;-69
2022/04/25 11:42:30;;;;;;;18.63;16.88;;;16.00;92.70;;;;;;5114748;28;20204;-69
2022/04/25 11:44:57;;;;;;;19.23;17.33;;;15.90;95.20;;;;;;5114135;28;20203;-69
2022/04/25 11:47:24;;;;;;;18.08;16.38;;;15.90;96.70;;;;;;5114574;28;20201;-69
2022/04/25 11:49:59;;;;;;;21.70;19.60;;;16.00;98.40;;;;;;5114533;28;20567;-69
2022/04/25 11:52:26;;;;;;;20.23;18.33;;;16.10;96.20;;;;;;5115205;28;20570;-69
2022/04/25 11:54:53;;;;;;;19.65;17.55;;;16.00;95.50;;;;;;5114729;28;20211;-70
2022/04/25 11:57:20;;;;;;;19.50;17.50;;;15.90;95.60;;;;;;5114952;28;20255;-70
2022/04/25 11:59:48;;;;;;;20.08;18.08;;;15.90;98.50;;;;;;5115152;28;20201;-70
2022/04/25 12:02:15;;;;;;;20.63;18.63;;;15.90;98.80;;;;;;5114223;28;20214;-69
2022/04/25 12:04:43;;;;;;;21.27;19.13;;;15.70;99.00;;;;;;5114072;28;20224;-68
2022/04/25 12:07:11;;;;;;;22.35;20.15;;;15.70;99.90;;;;;;5114465;28;20211;-69
2022/04/25 12:15:40;;;;;;;23.48;21.02;;;14.90;99.90;;;;;;5113705;28;20263;-68
2022/04/25 12:18:15;;;;;;;23.25;20.90;;;14.60;99.90;;;;;;5114059;28;20232;-68
2022/04/25 12:20:43;;;;;;;23.88;21.38;;;14.50;99.90;;;;;;5113574;28;20297;-69
2022/04/25 12:23:11;;;;;;;26.42;23.08;;;14.40;99.90;;;;;;5113772;28;20226;-67
2022/04/25 12:25:43;;;;;;;26.33;23.52;;;14.40;99.90;;;;;;5113787;28;20219;-68
2022/04/25 12:28:18;;;;;;;26.17;23.38;;;14.50;99.90;;;;;;5114469;28;20200;-69
2022/04/25 12:30:48;;;;;;;26.92;23.88;;;14.40;99.90;;;;;;5113999;28;20629;-68
2022/04/25 12:33:16;;;;;;;26.42;23.63;;;14.30;99.90;;;;;;5113892;28;20219;-68
2022/04/25 12:35:44;;;;;;;24.88;22.25;;;14.40;99.90;;;;;;5113669;28;20209;-68
2022/04/25 12:38:31;;;;;;;27.25;23.80;;;14.50;99.90;;;;;;5113885;28;20214;-69
2022/04/25 12:40:58;;;;;;;26.90;23.98;;;14.40;99.90;;;;;;5114078;28;20288;-68
2022/04/25 12:43:43;;;;;;;33.45;28.35;;;14.40;99.90;;;;;;5113709;28;20235;-68
2022/04/25 12:46:13;;;;;;;24.30;21.75;;;14.50;99.90;;;;;;5113744;28;20203;-67
2022/04/25 12:49:05;;;;;;;26.67;23.92;;;14.70;99.90;;;;;;5113802;28;20196;-68
2022/04/25 12:51:34;;;;;;;24.13;21.63;;;14.80;99.90;;;;;;5113373;28;20669;-68
2022/04/25 12:54:02;;;;;;;23.35;21.00;;;14.70;99.90;;;;;;5113433;28;20229;-67
2022/04/25 12:56:30;;;;;;;23.88;21.40;;;14.90;99.90;;;;;;5113569;28;20295;-69
2022/04/25 12:58:57;;;;;;;23.08;20.80;;;15.00;99.90;;;;;;5113689;28;20223;-69
2022/04/25 13:01:34;;;;;;;24.50;21.90;;;15.00;99.90;;;;;;5113578;28;20406;-69
2022/04/25 13:04:08;;;;;;;22.73;20.35;;;15.00;99.90;;;;;;5113176;28;20310;-68
2022/04/25 13:06:37;;;;;;;25.25;21.25;;;15.10;99.90;;;;;;5113225;28;20200;-67
2022/04/25 13:09:04;;;;;;;26.83;22.23;;;14.90;99.90;;;;;;5113491;28;20210;-68
2022/04/25 13:11:31;;;;;;;24.92;22.17;;;14.80;99.90;;;;;;5113178;28;20210;-68
2022/04/25 13:13:59;;;;;;;25.90;23.23;;;14.70;99.90;;;;;;5112995;28;20224;-67